Time;durP1;ratioP1;P1;durP2;ratioP2;P2;SDS_P1;SDS_P2;PMS_P1;PMS_P2;Temp;Humidity;BMP_temperature;BMP_pressure;BME280_temperature;BME280_humidity;BME280_pressure;Samples;Min_cycle;Max_cycle;Signal;HPM_P1;HPM_P2
2023/07/16 00:01:55;;;;;;;6.75;2.95;;;;;;;17.14;86.32;100669.53;3533052;40;20517;-64
2023/07/16 00:04:20;;;;;;;6.60;2.70;;;;;;;17.10;85.91;100673.53;3531038;40;20061;-64
2023/07/16 00:06:46;;;;;;;7.32;3.13;;;;;;;17.05;86.31;100670.38;3530902;40;20290;-64
2023/07/16 00:09:12;;;;;;;5.82;2.92;;;;;;;17.02;86.79;100681.50;3532136;40;20088;-64
2023/07/16 00:11:37;;;;;;;6.78;2.60;;;;;;;16.96;84.87;100679.34;3535621;40;21478;-64
2023/07/16 00:14:03;;;;;;;7.60;2.42;;;;;;;16.96;86.73;100680.19;3534934;40;20491;-64
2023/07/16 00:16:29;;;;;;;4.70;2.65;;;;;;;16.97;85.87;100678.34;3530611;40;20129;-64
2023/07/16 00:18:54;;;;;;;7.35;2.50;;;;;;;16.71;85.50;100651.66;3533395;40;20069;-64
2023/07/16 00:21:20;;;;;;;8.57;3.15;;;;;;;16.86;85.41;100682.91;3532089;40;20065;-64
2023/07/16 00:23:46;;;;;;;5.40;2.47;;;;;;;16.85;86.16;100683.91;3532436;40;20062;-64
2023/07/16 00:26:13;;;;;;;10.38;2.88;;;;;;;16.83;85.29;100677.75;3530186;40;20058;-64
2023/07/16 00:28:39;;;;;;;4.90;2.22;;;;;;;16.87;86.51;100679.22;3530770;40;20348;-64
2023/07/16 00:31:05;;;;;;;8.40;2.95;;;;;;;16.87;85.76;100683.75;3537017;40;20120;-64
2023/07/16 00:33:30;;;;;;;6.22;2.42;;;;;;;16.89;86.53;100682.63;3529098;40;20124;-63
2023/07/16 00:35:56;;;;;;;6.05;2.60;;;;;;;16.90;86.54;100689.78;3531349;40;20061;-64
2023/07/16 00:38:22;;;;;;;4.35;2.50;;;;;;;16.94;86.08;100684.94;3530985;40;20058;-64
2023/07/16 00:40:47;;;;;;;6.75;3.13;;;;;;;16.55;86.26;100622.34;3528826;40;20137;-64
2023/07/16 00:43:14;;;;;;;5.60;2.42;;;;;;;16.97;86.10;100694.63;3522089;40;20072;-64
2023/07/16 00:45:42;;;;;;;4.18;2.72;;;;;;;16.97;86.08;100684.66;3531940;40;20205;-64
2023/07/16 00:48:08;;;;;;;8.98;2.85;;;;;;;16.94;85.87;100685.78;3530446;40;20101;-64
2023/07/16 00:50:39;;;;;;;4.32;2.20;;;;;;;16.88;85.82;100672.78;3529125;40;20248;-64
2023/07/16 00:53:07;;;;;;;5.15;2.30;;;;;;;16.97;85.63;100689.19;3532206;40;20054;-64
2023/07/16 00:55:33;;;;;;;4.90;2.13;;;;;;;16.94;85.13;100685.78;3537106;40;20232;-64
2023/07/16 00:58:05;;;;;;;6.32;3.00;;;;;;;16.94;85.13;100679.50;3534474;40;20394;-64
2023/07/16 01:00:32;;;;;;;4.40;2.40;;;;;;;16.94;85.86;100683.06;3533561;40;20054;-63
2023/07/16 01:02:58;;;;;;;4.60;2.38;;;;;;;16.93;84.90;100684.06;3533407;40;20072;-65
2023/07/16 01:05:34;;;;;;;6.93;2.47;;;;;;;16.89;85.46;100688.06;3532114;40;20062;-65
2023/07/16 01:08:08;;;;;;;7.53;2.28;;;;;;;16.87;86.35;100690.06;3534126;40;20091;-65
2023/07/16 01:10:34;;;;;;;4.78;2.35;;;;;;;16.87;85.76;100683.75;3533859;40;20077;-64
2023/07/16 01:13:01;;;;;;;5.40;2.30;;;;;;;16.86;85.86;100684.75;3536733;40;20066;-64
2023/07/16 01:15:26;;;;;;;5.55;2.75;;;;;;;16.86;86.50;100688.31;3534186;40;20328;-64
2023/07/16 01:17:52;;;;;;;5.32;2.50;;;;;;;16.84;86.13;100678.59;3535682;40;20062;-64
2023/07/16 01:20:18;;;;;;;6.35;2.60;;;;;;;16.86;85.98;100677.47;3526581;40;20382;-64
2023/07/16 01:23:20;;;;;;;5.43;2.50;;;;;;;16.80;86.38;100686.16;3533160;40;20054;-64
2023/07/16 01:26:17;;;;;;;4.75;2.45;;;;;;;16.79;87.35;100676.31;3537968;40;20298;-65
2023/07/16 01:29:32;;;;;;;7.07;2.55;;;;;;;16.78;87.47;100674.59;3536153;40;20054;-64
2023/07/16 01:32:03;;;;;;;6.45;2.85;;;;;;;16.78;88.66;100680.03;3534170;40;20349;-64
2023/07/16 01:34:33;;;;;;;5.78;2.90;;;;;;;16.79;89.28;100680.88;3533989;40;20088;-64
2023/07/16 01:37:04;;;;;;;7.65;2.80;;;;;;;16.79;89.61;100684.47;3533289;40;20066;-64
2023/07/16 01:39:34;;;;;;;4.15;2.47;;;;;;;16.81;90.06;100682.47;3534518;40;20149;-64
2023/07/16 01:42:02;;;;;;;8.98;2.75;;;;;;;16.69;89.65;100659.13;3528164;40;20432;-64
2023/07/16 01:44:27;;;;;;;3.97;2.60;;;;;;;16.80;90.84;100680.75;3536301;40;20100;-64
2023/07/16 01:47:28;;;;;;;6.22;2.90;;;;;;;16.75;90.67;100676.72;3521154;40;20472;-64
2023/07/16 01:49:54;;;;;;;7.70;3.10;;;;;;;16.79;91.41;100681.75;3530937;40;20062;-63
2023/07/16 01:52:20;;;;;;;5.80;3.13;;;;;;;16.81;92.64;100684.31;3533822;40;20097;-64
2023/07/16 01:54:45;;;;;;;7.55;3.20;;;;;;;16.81;92.33;100679.75;3535006;40;20394;-64
2023/07/16 01:57:11;;;;;;;7.75;2.92;;;;;;;16.82;93.46;100681.47;3535256;40;20073;-64
2023/07/16 01:59:37;;;;;;;6.78;3.20;;;;;;;16.83;93.33;100680.47;3533676;40;20410;-64
2023/07/16 02:02:03;;;;;;;7.65;3.50;;;;;;;16.87;94.07;100672.88;3534703;40;20278;-64
2023/07/16 02:04:29;;;;;;;6.90;3.22;;;;;;;16.86;93.52;100669.31;3536873;40;20593;-64
2023/07/16 02:06:54;;;;;;;5.15;3.20;;;;;;;16.87;94.19;100668.34;3534636;40;20062;-67
2023/07/16 02:09:21;;;;;;;6.88;3.25;;;;;;;16.91;94.52;100674.34;3532903;40;20102;-64
2023/07/16 02:11:47;;;;;;;4.78;2.67;;;;;;;16.84;93.94;100657.75;3532072;40;20058;-63
2023/07/16 02:14:14;;;;;;;6.53;3.35;;;;;;;16.95;94.36;100678.50;3530331;40;20161;-63
2023/07/16 02:16:40;;;;;;;3.63;3.05;;;;;;;16.99;94.26;100677.22;3534272;40;20179;-64
2023/07/16 02:19:05;;;;;;;6.13;3.10;;;;;;;16.98;94.74;100678.22;3533420;40;20053;-62
2023/07/16 02:21:31;;;;;;;6.38;3.67;;;;;;;16.98;94.53;100682.78;3533237;40;20311;-62
2023/07/16 02:23:57;;;;;;;5.43;3.30;;;;;;;17.00;93.88;100688.94;3535844;40;20139;-62
2023/07/16 02:26:22;;;;;;;6.70;3.03;;;;;;;16.65;93.41;100627.78;3531562;40;21588;-62
2023/07/16 02:28:48;;;;;;;7.60;3.22;;;;;;;17.00;93.89;100691.63;3534547;40;20054;-62
2023/07/16 02:31:14;;;;;;;6.05;3.45;;;;;;;17.01;94.11;100690.66;3523129;40;20054;-62
2023/07/16 02:33:39;;;;;;;7.47;3.10;;;;;;;17.02;94.14;100695.09;3528051;40;20386;-64
2023/07/16 02:36:06;;;;;;;7.55;3.40;;;;;;;17.03;93.38;100696.78;3534589;40;20061;-62
2023/07/16 02:38:32;;;;;;;5.80;2.90;;;;;;;17.04;94.17;100701.25;3531338;40;20142;-63
2023/07/16 02:40:57;;;;;;;4.43;2.75;;;;;;;17.05;93.50;100703.81;3532711;40;20381;-62
2023/07/16 02:43:23;;;;;;;4.35;3.10;;;;;;;17.01;93.00;100701.53;3535029;40;20166;-62
2023/07/16 02:45:49;;;;;;;5.70;3.25;;;;;;;16.92;93.32;100686.91;3531949;40;20416;-61
2023/07/16 02:48:14;;;;;;;5.10;2.85;;;;;;;16.97;93.29;100695.53;3529951;40;20631;-62
2023/07/16 02:50:40;;;;;;;7.38;3.05;;;;;;;16.94;93.61;100699.38;3531582;40;20065;-65
2023/07/16 02:53:07;;;;;;;6.93;3.50;;;;;;;16.91;92.61;100702.34;3532611;40;20106;-62
2023/07/16 02:55:35;;;;;;;6.03;2.65;;;;;;;16.86;93.32;100695.63;3534380;40;20054;-62
2023/07/16 02:58:04;;;;;;;8.70;3.10;;;;;;;16.92;92.29;100709.50;3529655;40;20058;-62
2023/07/16 03:00:34;;;;;;;5.88;2.80;;;;;;;16.89;91.67;100714.34;3532149;40;20308;-62
2023/07/16 03:03:00;;;;;;;6.47;2.88;;;;;;;16.86;90.98;100715.47;3532382;40;20197;-62
2023/07/16 03:05:28;;;;;;;8.02;3.33;;;;;;;16.86;91.35;100710.06;3524451;40;20089;-62
2023/07/16 03:07:54;;;;;;;5.47;2.70;;;;;;;16.84;90.53;100720.22;3533439;40;20327;-62
2023/07/16 03:10:26;;;;;;;8.40;3.03;;;;;;;16.83;89.33;100715.75;3533616;40;20231;-62
2023/07/16 03:12:52;;;;;;;10.15;3.40;;;;;;;16.81;88.87;100717.78;3530490;40;20604;-64
2023/07/16 03:15:18;;;;;;;7.45;3.17;;;;;;;16.75;87.68;100722.84;3529705;40;20082;-62
2023/07/16 03:17:43;;;;;;;7.88;3.25;;;;;;;16.70;87.01;100717.81;3531458;40;20136;-63
2023/07/16 03:20:10;;;;;;;6.55;3.05;;;;;;;16.73;84.71;100728.41;3528195;40;20074;-63
2023/07/16 03:22:35;;;;;;;5.68;2.90;;;;;;;16.71;84.60;100733.09;3535156;40;20450;-63
2023/07/16 03:25:02;;;;;;;7.05;3.42;;;;;;;16.54;83.83;100704.75;3529966;40;20062;-62
2023/07/16 03:27:29;;;;;;;9.05;3.80;;;;;;;16.65;81.12;100728.22;3531184;40;20069;-62
2023/07/16 03:29:54;;;;;;;6.00;3.55;;;;;;;16.63;82.03;100731.09;3531142;40;20451;-63
2023/07/16 03:32:20;;;;;;;5.10;3.28;;;;;;;16.59;81.04;100735.06;3529567;40;20130;-63
2023/07/16 03:34:46;;;;;;;5.75;3.25;;;;;;;16.55;81.10;100732.75;3533370;40;20062;-62
2023/07/16 03:37:11;;;;;;;8.25;3.60;;;;;;;16.52;80.82;100733.88;3531722;40;20061;-63
2023/07/16 03:39:37;;;;;;;7.22;3.55;;;;;;;16.48;80.19;100738.72;3531655;40;20302;-62
2023/07/16 03:42:03;;;;;;;10.80;3.97;;;;;;;16.44;80.30;100737.28;3533891;40;20499;-62
2023/07/16 03:44:29;;;;;;;9.68;4.07;;;;;;;16.41;80.02;100737.56;3532192;40;20298;-61
2023/07/16 03:46:55;;;;;;;7.47;3.47;;;;;;;16.38;80.83;100745.97;3532220;40;20058;-63
2023/07/16 03:49:20;;;;;;;6.70;3.65;;;;;;;16.33;81.43;100745.50;3521523;40;20451;-62
2023/07/16 03:51:46;;;;;;;8.27;3.67;;;;;;;16.30;80.96;100748.50;3531236;40;20238;-63
2023/07/16 03:54:11;;;;;;;8.23;3.60;;;;;;;16.25;81.00;100753.44;3520148;40;20461;-63
2023/07/16 03:56:37;;;;;;;7.63;3.72;;;;;;;16.13;81.94;100743.66;3531543;40;20089;-62
2023/07/16 03:59:03;;;;;;;10.65;4.03;;;;;;;16.17;82.10;100762.22;3529803;40;20050;-63
2023/07/16 04:01:28;;;;;;;7.47;3.72;;;;;;;16.16;81.77;100765.09;3531204;40;20370;-62
2023/07/16 04:03:54;;;;;;;8.23;3.38;;;;;;;16.15;81.09;100766.09;3535093;40;20061;-63
2023/07/16 04:06:19;;;;;;;8.35;3.47;;;;;;;16.13;80.92;100765.34;3531591;40;20122;-61
2023/07/16 04:08:45;;;;;;;7.78;3.58;;;;;;;16.10;80.04;100761.06;3528623;40;20060;-62
2023/07/16 04:11:11;;;;;;;8.98;4.20;;;;;;;16.06;79.32;100769.59;3529334;40;20090;-63
2023/07/16 04:13:36;;;;;;;6.50;3.60;;;;;;;16.08;78.44;100771.19;3529133;40;20059;-63
2023/07/16 04:16:02;;;;;;;7.82;3.17;;;;;;;16.10;78.44;100774.63;3533079;40;20356;-63
2023/07/16 04:18:28;;;;;;;8.55;3.83;;;;;;;16.12;78.63;100785.34;3528657;40;20308;-64
2023/07/16 04:20:53;;;;;;;7.57;3.75;;;;;;;16.12;78.15;100790.75;3520035;40;20113;-63
2023/07/16 04:23:20;;;;;;;9.35;4.13;;;;;;;16.08;77.85;100790.16;3531287;40;20058;-63
2023/07/16 04:25:46;;;;;;;8.98;4.00;;;;;;;16.13;77.77;100808.75;3528009;40;20139;-62
2023/07/16 04:28:12;;;;;;;7.00;4.15;;;;;;;16.07;77.51;100814.69;3530733;40;20279;-63
2023/07/16 04:30:38;;;;;;;9.60;4.25;;;;;;;16.06;76.98;100803.00;3528865;40;20491;-63
2023/07/16 04:33:04;;;;;;;7.45;4.07;;;;;;;16.00;77.67;100792.66;3524536;40;20226;-63
2023/07/16 04:35:30;;;;;;;10.57;4.18;;;;;;;15.56;77.72;100730.34;3530203;40;20055;-63
2023/07/16 04:37:56;;;;;;;7.68;4.35;;;;;;;16.02;77.73;100813.25;3529775;40;20082;-64
2023/07/16 04:40:21;;;;;;;7.15;4.20;;;;;;;16.07;78.00;100812.84;3531577;40;20177;-64
2023/07/16 04:42:47;;;;;;;7.78;3.90;;;;;;;16.12;76.96;100818.75;3523301;40;20386;-65
2023/07/16 04:45:13;;;;;;;8.57;4.50;;;;;;;16.07;77.58;100815.53;3529995;40;20098;-65
2023/07/16 04:47:39;;;;;;;10.20;4.57;;;;;;;16.12;76.90;100815.19;3529717;40;20073;-65
2023/07/16 04:50:06;;;;;;;10.80;4.60;;;;;;;16.14;77.25;100832.16;3528406;40;20069;-65
2023/07/16 04:52:31;;;;;;;8.80;4.30;;;;;;;15.98;76.71;100803.66;3531882;40;20062;-65
2023/07/16 04:54:57;;;;;;;8.77;4.60;;;;;;;16.15;76.53;100831.19;3530813;40;20333;-65
2023/07/16 04:57:22;;;;;;;7.72;4.25;;;;;;;16.15;76.59;100831.19;3530957;40;20388;-64
2023/07/16 04:59:48;;;;;;;8.18;4.13;;;;;;;16.17;76.47;100831.91;3529745;40;20341;-64
2023/07/16 05:02:16;;;;;;;8.15;4.32;;;;;;;16.18;76.39;100837.22;3531750;40;20136;-64
2023/07/16 05:04:43;;;;;;;8.60;4.63;;;;;;;16.19;76.64;100829.94;3532841;40;20050;-63
2023/07/16 05:07:09;;;;;;;9.32;4.30;;;;;;;16.07;75.09;100815.53;3530915;40;20108;-64
2023/07/16 05:09:35;;;;;;;10.45;4.70;;;;;;;16.25;74.06;100841.09;3530838;40;20077;-64
2023/07/16 05:12:01;;;;;;;9.50;4.50;;;;;;;16.26;74.84;100841.97;3522591;40;20446;-65
2023/07/16 05:14:28;;;;;;;7.97;4.40;;;;;;;16.31;75.25;100847.88;3530341;40;20153;-65
2023/07/16 05:16:55;;;;;;;8.43;4.38;;;;;;;16.31;74.45;100842.44;3533889;40;20131;-65
2023/07/16 05:19:22;;;;;;;9.70;4.70;;;;;;;16.35;74.08;100835.75;3531775;40;20046;-64
2023/07/16 05:21:47;;;;;;;8.68;4.82;;;;;;;16.37;74.34;100839.19;3531441;40;20058;-65
2023/07/16 05:24:13;;;;;;;7.18;4.30;;;;;;;16.41;73.41;100846.06;3521061;40;21566;-65
2023/07/16 05:26:39;;;;;;;6.07;4.55;;;;;;;16.32;72.79;100827.88;3529879;40;20065;-65
2023/07/16 05:29:04;;;;;;;9.55;4.90;;;;;;;16.50;72.47;100846.28;3529836;40;20054;-65
2023/07/16 05:31:30;;;;;;;7.13;4.43;;;;;;;16.44;71.53;100834.97;3528279;40;20329;-64
2023/07/16 05:33:56;;;;;;;9.18;4.88;;;;;;;16.54;72.38;100845.88;3527859;40;20137;-65
2023/07/16 05:36:22;;;;;;;6.57;4.85;;;;;;;16.42;71.02;100828.78;3529936;40;20070;-64
2023/07/16 05:38:48;;;;;;;8.48;4.72;;;;;;;16.16;72.11;100771.38;3527487;40;20436;-64
2023/07/16 05:41:13;;;;;;;8.68;4.30;;;;;;;16.66;71.46;100846.66;3517018;40;20073;-65
2023/07/16 05:43:39;;;;;;;10.15;4.78;;;;;;;16.70;72.12;100856.25;3532221;40;20105;-65
2023/07/16 05:46:05;;;;;;;9.85;5.03;;;;;;;16.73;71.05;100861.41;3535157;40;20065;-63
2023/07/16 05:48:31;;;;;;;8.98;5.20;;;;;;;16.32;70.72;100789.91;3534307;40;20058;-64
2023/07/16 05:50:57;;;;;;;9.20;5.15;;;;;;;16.81;70.06;100864.38;3532552;40;20066;-64
2023/07/16 05:53:23;;;;;;;9.95;4.60;;;;;;;16.85;70.16;100859.53;3535575;40;20062;-66
2023/07/16 05:55:49;;;;;;;7.28;4.40;;;;;;;16.78;69.67;100847.47;3524970;40;20121;-65
2023/07/16 05:58:16;;;;;;;9.93;5.00;;;;;;;16.99;69.09;100875.44;3530930;40;20372;-65
2023/07/16 06:00:41;;;;;;;9.23;5.10;;;;;;;17.05;68.89;100883.06;3530766;40;20297;-65
2023/07/16 06:03:07;;;;;;;9.30;4.90;;;;;;;17.10;68.22;100880.81;3533019;40;20062;-65
2023/07/16 06:05:34;;;;;;;10.02;5.32;;;;;;;17.16;68.20;100879.41;3535429;40;20058;-67
2023/07/16 06:08:01;;;;;;;11.25;4.68;;;;;;;17.20;68.38;100889.00;3531257;40;20405;-65
2023/07/16 06:10:27;;;;;;;15.35;5.80;;;;;;;17.21;68.66;100882.56;3534578;40;20125;-64
2023/07/16 06:12:52;;;;;;;10.05;5.10;;;;;;;17.37;67.72;100891.06;3536758;40;20064;-65
2023/07/16 06:15:18;;;;;;;10.02;4.90;;;;;;;17.44;68.16;100895.94;3530201;40;20073;-65
2023/07/16 06:17:44;;;;;;;10.98;5.18;;;;;;;17.49;67.54;100893.69;3520352;40;20078;-65
2023/07/16 06:20:10;;;;;;;11.88;5.57;;;;;;;17.52;66.33;100896.13;3534117;40;20050;-65
2023/07/16 06:22:36;;;;;;;11.77;5.07;;;;;;;17.48;66.77;100870.25;3529888;40;20060;-65
2023/07/16 06:25:04;;;;;;;8.98;5.50;;;;;;;17.69;66.27;100903.59;3529864;40;20058;-65
2023/07/16 06:27:30;;;;;;;11.95;4.80;;;;;;;17.74;65.35;100909.50;3532035;40;20058;-65
2023/07/16 06:29:55;;;;;;;9.95;5.40;;;;;;;17.82;64.86;100901.56;3531122;40;20060;-65
2023/07/16 06:32:21;;;;;;;12.95;5.32;;;;;;;17.94;64.85;100905.00;3521495;40;20069;-65
2023/07/16 06:34:47;;;;;;;10.70;5.72;;;;;;;18.03;64.88;100908.72;3521365;40;20104;-65
2023/07/16 06:37:12;;;;;;;9.88;4.93;;;;;;;18.14;64.78;100908.63;3534621;40;20066;-65
2023/07/16 06:39:38;;;;;;;9.93;5.10;;;;;;;18.24;64.51;100914.91;3523813;40;20305;-67
2023/07/16 06:42:04;;;;;;;12.20;5.50;;;;;;;18.39;64.72;100912.59;3532473;40;20135;-67
2023/07/16 06:44:30;;;;;;;11.43;5.40;;;;;;;18.50;63.56;100930.69;3533404;40;20295;-68
2023/07/16 06:46:56;;;;;;;10.73;5.35;;;;;;;18.59;63.26;100929.81;3532394;40;20092;-68
2023/07/16 06:49:22;;;;;;;8.63;5.20;;;;;;;18.52;62.04;100893.25;3531048;40;20141;-66
2023/07/16 06:51:47;;;;;;;8.02;4.72;;;;;;;18.75;63.01;100930.13;3522322;40;20078;-65
2023/07/16 06:54:13;;;;;;;9.35;5.28;;;;;;;18.87;62.01;100916.31;3518738;40;20365;-65
2023/07/16 06:56:39;;;;;;;9.30;5.53;;;;;;;18.56;60.75;100867.47;3529765;40;20137;-65
2023/07/16 06:59:05;;;;;;;12.35;5.85;;;;;;;19.04;60.89;100931.94;3532558;40;20125;-63
2023/07/16 07:01:30;;;;;;;15.98;9.95;;;;;;;19.14;61.07;100938.19;3530702;40;20106;-64
2023/07/16 07:03:56;;;;;;;11.48;5.07;;;;;;;19.16;60.72;100930.75;3532231;40;20059;-65
2023/07/16 07:06:22;;;;;;;7.43;4.97;;;;;;;19.26;60.61;100936.16;3536365;40;20058;-65
2023/07/16 07:08:47;;;;;;;7.20;4.72;;;;;;;19.33;59.36;100942.72;3529790;40;20412;-65
2023/07/16 07:11:13;;;;;;;12.27;5.57;;;;;;;19.46;60.33;100939.66;3532722;40;20078;-65
2023/07/16 07:13:39;;;;;;;10.82;5.80;;;;;;;19.52;60.56;100938.22;3531806;40;20117;-65
2023/07/16 07:16:04;;;;;;;10.30;5.63;;;;;;;19.59;59.68;100944.78;3528779;40;20054;-65
2023/07/16 07:18:30;;;;;;;8.80;5.38;;;;;;;19.71;60.49;100943.59;3530424;40;20417;-65
2023/07/16 07:20:56;;;;;;;10.35;4.80;;;;;;;19.71;58.48;100939.00;3534617;40;20373;-65
2023/07/16 07:23:22;;;;;;;10.40;5.10;;;;;;;19.79;58.30;100954.63;3532547;40;20555;-65
2023/07/16 07:25:52;;;;;;;11.77;5.20;;;;;;;19.75;58.53;100938.72;3527494;40;20306;-65
2023/07/16 07:28:20;;;;;;;8.88;5.65;;;;;;;19.91;58.68;100956.13;3530469;40;20058;-65
2023/07/16 07:30:46;;;;;;;8.68;5.30;;;;;;;19.98;57.84;100958.25;3532176;40;20301;-65
2023/07/16 07:33:12;;;;;;;8.18;4.85;;;;;;;20.04;58.22;100971.28;3528741;40;20417;-65
2023/07/16 07:35:37;;;;;;;8.80;5.00;;;;;;;20.03;57.00;100966.84;3534534;40;20050;-64
2023/07/16 07:38:04;;;;;;;10.52;5.43;;;;;;;20.03;57.57;100964.97;3531889;40;20094;-64
2023/07/16 07:40:29;;;;;;;8.65;4.75;;;;;;;19.54;57.58;100892.59;3533490;40;20081;-64
2023/07/16 07:42:55;;;;;;;9.40;5.00;;;;;;;19.85;58.19;100934.06;3535522;40;20385;-65
2023/07/16 07:45:21;;;;;;;9.13;5.50;;;;;;;20.15;59.38;100957.44;3526532;40;20070;-63
2023/07/16 07:47:46;;;;;;;10.27;5.78;;;;;;;20.30;58.33;100966.81;3533138;40;20492;-63
2023/07/16 07:50:12;;;;;;;8.98;4.97;;;;;;;20.49;58.49;100957.63;3530769;40;20510;-64
2023/07/16 07:52:37;;;;;;;9.88;5.13;;;;;;;20.73;56.70;100975.25;3530315;40;20392;-64
2023/07/16 07:55:04;;;;;;;9.40;5.10;;;;;;;20.79;56.00;100975.50;3529719;40;20158;-64
2023/07/16 07:57:30;;;;;;;8.40;5.50;;;;;;;20.80;55.84;100968.16;3533332;40;20063;-65
2023/07/16 07:59:57;;;;;;;9.63;4.90;;;;;;;20.89;56.50;100964.47;3534017;40;20097;-65
2023/07/16 08:02:24;;;;;;;7.40;4.85;;;;;;;20.84;54.84;100945.84;3533778;40;20120;-66
2023/07/16 08:04:54;;;;;;;12.45;5.47;;;;;;;20.90;55.81;100938.00;3529780;40;20050;-65
2023/07/16 08:07:21;;;;;;;10.35;5.18;;;;;;;21.21;55.16;100972.03;3530376;40;20070;-64
2023/07/16 08:09:47;;;;;;;10.32;5.13;;;;;;;21.37;55.28;100976.78;3533303;40;20058;-64
2023/07/16 08:12:14;;;;;;;8.05;4.53;;;;;;;21.45;54.39;100982.31;3532524;40;20294;-64
2023/07/16 08:14:41;;;;;;;8.05;4.72;;;;;;;21.51;53.86;100973.47;3535703;40;20058;-64
2023/07/16 08:17:07;;;;;;;11.80;4.95;;;;;;;21.56;53.03;100979.28;3535044;40;20129;-64
2023/07/16 08:19:33;;;;;;;9.60;4.72;;;;;;;21.63;52.99;100984.13;3534137;40;20092;-63
2023/07/16 08:21:58;;;;;;;6.63;4.45;;;;;;;21.65;52.49;100984.81;3530103;40;20066;-64
2023/07/16 08:24:25;;;;;;;12.20;4.95;;;;;;;21.63;53.18;100962.22;3531933;40;20069;-64
2023/07/16 08:26:51;;;;;;;9.52;4.38;;;;;;;21.74;53.64;100945.53;3531706;40;20063;-64
2023/07/16 08:29:17;;;;;;;7.65;4.38;;;;;;;21.90;51.53;100975.69;3535388;40;20159;-63
2023/07/16 08:31:43;;;;;;;10.82;4.85;;;;;;;21.99;52.32;100982.94;3534757;40;20120;-64
2023/07/16 08:34:08;;;;;;;8.90;4.45;;;;;;;22.05;51.56;100995.09;3534553;40;20295;-64
2023/07/16 08:36:36;;;;;;;9.45;4.70;;;;;;;22.13;51.41;100977.84;3530581;40;20070;-63
2023/07/16 08:39:02;;;;;;;7.95;5.10;;;;;;;22.19;51.87;100974.47;3529479;40;20094;-64
2023/07/16 08:41:28;;;;;;;6.43;4.60;;;;;;;22.36;51.57;100983.56;3533632;40;20441;-64
2023/07/16 08:43:56;;;;;;;7.63;4.40;;;;;;;22.60;52.26;100990.97;3532414;40;20054;-64
2023/07/16 08:46:22;;;;;;;8.82;4.18;;;;;;;22.85;50.92;100983.63;3532881;40;20058;-64
2023/07/16 08:48:49;;;;;;;7.82;4.20;;;;;;;23.01;50.51;100977.31;3529252;40;20054;-64
2023/07/16 08:51:18;;;;;;;7.40;4.38;;;;;;;23.23;48.36;100990.34;3529681;40;20117;-64
2023/07/16 08:53:44;;;;;;;9.23;4.35;;;;;;;23.18;48.29;100962.56;3530873;40;20124;-64
2023/07/16 08:56:10;;;;;;;5.85;3.80;;;;;;;23.34;48.27;100998.22;3528396;40;20051;-64
2023/07/16 08:58:38;;;;;;;7.15;4.18;;;;;;;23.31;48.46;100995.81;3531382;40;20424;-64
2023/07/16 09:01:06;;;;;;;8.07;4.30;;;;;;;23.30;47.92;101007.81;3532457;40;20059;-64
2023/07/16 09:03:31;;;;;;;6.00;3.90;;;;;;;23.37;47.79;101000.59;3534062;40;20081;-63
2023/07/16 09:05:57;;;;;;;5.57;4.00;;;;;;;23.26;47.52;101008.34;3532198;40;20796;-63
2023/07/16 09:08:28;;;;;;;6.95;3.95;;;;;;;23.12;47.81;101009.88;3530807;40;20129;-63
2023/07/16 09:10:56;;;;;;;7.80;3.90;;;;;;;23.08;48.12;101005.75;3530318;40;20054;-63
2023/07/16 09:13:27;;;;;;;8.73;4.32;;;;;;;23.12;49.70;100982.44;3531036;40;20117;-63
2023/07/16 09:15:55;;;;;;;7.45;4.15;;;;;;;23.41;47.72;101006.59;3530242;40;20071;-63
2023/07/16 09:18:23;;;;;;;9.77;4.00;;;;;;;23.43;48.24;101009.16;3524657;40;20062;-64
2023/07/16 09:21:02;;;;;;;6.30;3.60;;;;;;;23.46;47.81;101000.56;3533660;40;20394;-64
2023/07/16 09:23:30;;;;;;;8.73;3.95;;;;;;;23.63;48.28;101016.00;3532642;40;20062;-63
2023/07/16 09:25:56;;;;;;;5.00;3.67;;;;;;;23.46;47.54;101019.78;3533971;40;20062;-64
2023/07/16 09:28:23;;;;;;;6.43;3.60;;;;;;;23.28;47.53;101022.72;3533051;40;20062;-63
2023/07/16 09:30:51;;;;;;;7.53;3.58;;;;;;;23.12;48.93;101007.13;3530729;40;20077;-63
2023/07/16 09:33:26;;;;;;;7.38;4.00;;;;;;;23.19;48.46;101018.28;3531863;40;20054;-63
2023/07/16 09:35:51;;;;;;;8.38;3.88;;;;;;;22.88;48.44;101000.59;3527274;40;20061;-63
2023/07/16 09:38:18;;;;;;;7.47;4.05;;;;;;;22.92;48.23;101014.81;3532449;40;20058;-63
2023/07/16 09:40:45;;;;;;;7.85;4.38;;;;;;;22.76;48.38;101012.91;3533966;40;20751;-64
2023/07/16 09:43:13;;;;;;;5.43;3.80;;;;;;;22.70;48.93;101032.78;3532887;40;20409;-64
2023/07/16 09:45:39;;;;;;;6.40;3.47;;;;;;;22.68;49.60;101027.47;3533204;40;20060;-64
2023/07/16 09:48:05;;;;;;;7.13;3.95;;;;;;;22.56;49.83;101006.91;3531536;40;20074;-65
2023/07/16 09:50:36;;;;;;;6.10;3.85;;;;;;;22.71;49.32;101032.63;3535540;40;20058;-63
2023/07/16 09:53:07;;;;;;;7.72;4.35;;;;;;;22.63;48.98;101034.50;3531813;40;20072;-65
2023/07/16 09:55:36;;;;;;;6.32;3.40;;;;;;;22.54;49.11;101035.50;3534258;40;20056;-64
2023/07/16 09:58:09;;;;;;;7.38;4.13;;;;;;;22.71;49.81;101050.97;3531101;40;20108;-64
2023/07/16 10:00:39;;;;;;;6.95;3.90;;;;;;;22.81;48.74;101029.72;3531866;40;20089;-64
2023/07/16 10:03:08;;;;;;;7.32;4.03;;;;;;;22.95;48.77;101039.19;3529559;40;20068;-65
2023/07/16 10:05:37;;;;;;;6.15;3.92;;;;;;;22.99;48.98;101045.19;3529817;40;20228;-65
2023/07/16 10:08:03;;;;;;;6.82;3.67;;;;;;;23.04;49.01;101045.53;3531719;40;20057;-64
2023/07/16 10:10:42;;;;;;;6.10;3.88;;;;;;;23.08;48.39;101049.63;3533512;40;20366;-64
2023/07/16 10:13:12;;;;;;;5.35;3.72;;;;;;;23.08;48.52;101055.97;3530667;40;20783;-64
2023/07/16 10:15:42;;;;;;;7.13;4.10;;;;;;;23.09;48.05;101059.56;3531485;40;20057;-64
2023/07/16 10:18:07;;;;;;;9.43;4.00;;;;;;;23.02;49.74;101061.28;3520886;40;20065;-64
2023/07/16 10:20:42;;;;;;;8.27;4.10;;;;;;;22.96;48.64;101067.44;3534382;40;20406;-64
2023/07/16 10:23:14;;;;;;;7.28;4.22;;;;;;;22.88;48.77;101068.28;3533656;40;20121;-64
2023/07/16 10:25:41;;;;;;;7.22;5.15;;;;;;;23.00;49.75;101074.34;3530249;40;20378;-64
2023/07/16 10:28:06;;;;;;;5.55;3.75;;;;;;;23.11;49.24;101077.56;3532666;40;20062;-64
2023/07/16 10:30:34;;;;;;;8.43;4.00;;;;;;;23.21;48.42;101071.91;3532752;40;20106;-64
2023/07/16 10:33:10;;;;;;;6.18;3.85;;;;;;;23.25;48.39;101077.91;3533554;40;20086;-64
2023/07/16 10:35:42;;;;;;;6.38;4.25;;;;;;;23.44;47.57;101080.34;3531782;40;20549;-64
2023/07/16 10:38:07;;;;;;;8.10;3.75;;;;;;;23.69;46.55;101081.19;3533384;40;20125;-64
2023/07/16 10:40:39;;;;;;;6.13;3.70;;;;;;;24.01;46.31;101074.75;3534662;40;20050;-64
2023/07/16 10:43:06;;;;;;;6.50;3.88;;;;;;;24.29;46.14;101074.28;3529997;40;20058;-64
2023/07/16 10:45:33;;;;;;;6.70;3.75;;;;;;;24.25;46.13;101082.03;3523930;40;20054;-63
2023/07/16 10:47:59;;;;;;;5.90;3.72;;;;;;;24.12;46.03;101086.41;3534148;40;20066;-63
2023/07/16 10:50:24;;;;;;;7.93;4.00;;;;;;;23.95;46.38;101080.09;3535100;40;20390;-64
2023/07/16 10:52:55;;;;;;;3.97;3.42;;;;;;;23.95;46.00;101091.09;3533459;40;21513;-64
2023/07/16 10:55:22;;;;;;;6.90;3.58;;;;;;;23.89;46.59;101087.16;3534817;40;20437;-64
2023/07/16 10:57:50;;;;;;;3.97;3.05;;;;;;;23.68;45.95;101086.81;3535097;40;20237;-64
2023/07/16 11:00:20;;;;;;;4.80;3.47;;;;;;;23.44;46.58;101095.91;3532585;40;20111;-64
2023/07/16 11:02:47;;;;;;;7.38;3.80;;;;;;;23.21;46.49;101098.50;3526617;40;20593;-64
2023/07/16 11:05:18;;;;;;;5.70;3.67;;;;;;;23.02;47.48;101099.69;3531405;40;20065;-64
2023/07/16 11:07:45;;;;;;;7.32;4.10;;;;;;;22.83;48.38;101096.19;3532064;40;20060;-63
2023/07/16 11:10:11;;;;;;;6.72;3.58;;;;;;;22.46;48.89;101048.16;3534208;40;20085;-63
2023/07/16 11:12:37;;;;;;;6.05;3.75;;;;;;;22.78;48.87;101105.97;3532630;40;20124;-62
2023/07/16 11:15:04;;;;;;;6.85;3.50;;;;;;;22.71;49.86;101101.16;3534300;40;20066;-63
2023/07/16 11:17:30;;;;;;;5.45;3.67;;;;;;;22.67;49.76;101101.63;3534474;40;20058;-64
2023/07/16 11:19:59;;;;;;;7.70;3.92;;;;;;;22.52;49.06;101073.16;3534255;40;20098;-63
2023/07/16 11:22:27;;;;;;;6.55;3.83;;;;;;;22.66;49.72;101106.25;3535134;40;20069;-63
2023/07/16 11:24:54;;;;;;;5.30;3.97;;;;;;;22.74;50.18;101116.41;3533574;40;20132;-63